Time;durP1;ratioP1;P1;durP2;ratioP2;P2;SDS_P1;SDS_P2;PMS_P1;PMS_P2;Temp;Humidity;BMP_temperature;BMP_pressure;BME280_temperature;BME280_humidity;BME280_pressure;Samples;Min_cycle;Max_cycle;Signal;HPM_P1;HPM_P2
2022/12/24 00:01:11;;;;;;;48.60;5.90;;;;;;;7.65;100.00;100555.72;6182461;23;19997;-90
2022/12/24 00:03:37;;;;;;;42.97;4.65;;;;;;;7.55;100.00;100560.88;6181826;23;20008;-91
2022/12/24 00:06:12;;;;;;;45.93;6.10;;;;;;;7.65;100.00;100566.38;6183239;23;20012;-90
2022/12/24 00:08:37;;;;;;;46.75;5.97;;;;;;;7.56;100.00;100567.81;6182176;23;20009;-90
2022/12/24 00:11:03;;;;;;;48.87;6.57;;;;;;;7.38;100.00;100561.69;6182185;23;20408;-90
2022/12/24 00:13:28;;;;;;;53.83;6.10;;;;;;;7.37;100.00;100569.94;6182209;23;20020;-89
2022/12/24 00:15:53;;;;;;;48.50;5.97;;;;;;;7.41;100.00;100571.06;6183263;23;20009;-90
2022/12/24 00:18:19;;;;;;;52.55;6.07;;;;;;;7.42;100.00;100576.16;6182174;23;20020;-90
2022/12/24 00:20:47;;;;;;;49.83;6.80;;;;;;;7.40;100.00;100564.94;6182564;23;20418;-89
2022/12/24 00:23:12;;;;;;;48.40;6.57;;;;;;;7.48;100.00;100570.91;6182796;23;20015;-89
2022/12/24 00:25:39;;;;;;;45.07;7.00;;;;;;;7.35;100.00;100572.03;6182614;23;20344;-90
2022/12/24 00:28:05;;;;;;;60.28;6.38;;;;;;;7.28;100.00;100570.34;6182527;23;20024;-90
2022/12/24 00:30:30;;;;;;;44.73;7.43;;;;;;;7.29;100.00;100563.16;6181653;23;20000;-90
2022/12/24 00:32:55;;;;;;;51.93;6.87;;;;;;;7.39;100.00;100589.97;6183552;23;20001;-89
2022/12/24 00:35:21;;;;;;;58.37;7.53;;;;;;;7.48;100.00;100595.69;6183614;23;20385;-89
2022/12/24 00:37:47;;;;;;;50.93;6.63;;;;;;;7.48;100.00;100587.72;6183840;23;20005;-89
2022/12/24 00:40:13;;;;;;;46.47;6.83;;;;;;;7.56;100.00;100595.31;6183352;23;20241;-89
2022/12/24 00:42:38;;;;;;;53.25;6.93;;;;;;;7.53;100.00;100593.13;6183404;23;20008;-89
2022/12/24 00:45:04;;;;;;;55.47;7.17;;;;;;;7.58;100.00;100609.19;6182328;23;20338;-90
2022/12/24 00:47:29;;;;;;;51.70;5.97;;;;;;;7.55;100.00;100614.19;6182082;23;20005;-89
2022/12/24 00:49:54;;;;;;;41.77;6.73;;;;;;;7.49;100.00;100607.16;6181990;23;20357;-89
2022/12/24 00:52:19;;;;;;;45.83;5.93;;;;;;;7.51;100.00;100615.72;6182870;23;20549;-89
2022/12/24 00:54:45;;;;;;;48.00;6.50;;;;;;;7.42;100.00;100621.47;6181663;23;20005;-89
2022/12/24 00:57:10;;;;;;;56.07;7.70;;;;;;;7.57;100.00;100630.78;6183472;23;20008;-89
2022/12/24 00:59:36;;;;;;;49.00;6.00;;;;;;;7.54;100.00;100624.06;6181896;23;20433;-89
2022/12/24 01:02:01;;;;;;;46.38;6.68;;;;;;;7.52;100.00;100625.34;6181769;23;20008;-89
2022/12/24 01:07:10;;;;;;;43.55;6.15;;;;;;;7.58;100.00;100649.19;6182174;23;20069;-89
2022/12/24 01:09:35;;;;;;;49.53;6.33;;;;;;;7.52;100.00;100638.69;6181337;23;20370;-88
2022/12/24 01:12:01;;;;;;;37.90;5.87;;;;;;;7.57;100.00;100639.59;6181622;23;20009;-89
2022/12/24 01:14:26;;;;;;;51.87;6.30;;;;;;;7.54;100.00;100644.59;6182091;23;20001;-89
2022/12/24 01:16:51;;;;;;;39.37;5.77;;;;;;;7.54;100.00;100642.75;6183253;23;20005;-89
2022/12/24 01:19:17;;;;;;;35.00;5.13;;;;;;;7.54;100.00;100655.25;6182024;23;20338;-89
2022/12/24 01:21:42;;;;;;;50.53;7.13;;;;;;;7.48;100.00;100646.38;6180856;23;20044;-89
2022/12/24 01:24:14;;;;;;;48.75;6.30;;;;;;;7.46;100.00;100648.47;6181069;23;20044;-89
2022/12/24 01:26:39;;;;;;;47.20;6.90;;;;;;;7.41;100.00;100648.38;6181218;23;20357;-89
2022/12/24 01:32:30;;;;;;;53.92;7.05;;;;;;;7.08;100.00;100653.41;6091513;23;20041;-89
2022/12/24 01:34:56;;;;;;;42.83;5.33;;;;;;;7.11;100.00;100673.44;6181413;23;20044;-89
2022/12/24 01:37:30;;;;;;;50.03;5.90;;;;;;;7.08;100.00;100673.91;6181713;23;20032;-89
2022/12/24 01:43:22;;;;;;;55.10;6.85;;;;;;;7.07;100.00;100677.63;6181595;23;20056;-88
2022/12/24 01:46:12;;;;;;;41.30;6.30;;;;;;;6.96;100.00;100687.25;6181676;23;20394;-89
2022/12/24 01:48:42;;;;;;;62.83;6.40;;;;;;;6.92;100.00;100691.47;6169632;23;20080;-89
2022/12/24 01:51:34;;;;;;;52.07;7.20;;;;;;;6.91;100.00;100684.53;6181330;23;20935;-89
2022/12/24 01:54:11;;;;;;;51.30;6.50;;;;;;;6.88;100.00;100695.66;6181324;23;20009;-89
2022/12/24 01:56:43;;;;;;;50.63;7.00;;;;;;;6.87;100.00;100694.03;6181232;23;20321;-89
2022/12/24 01:59:14;;;;;;;54.75;6.72;;;;;;;7.01;100.00;100706.03;6181806;23;20452;-89
2022/12/24 02:01:40;;;;;;;56.45;7.03;;;;;;;7.10;100.00;100693.97;6180969;23;20441;-89
2022/12/24 02:04:18;;;;;;;56.83;6.87;;;;;;;7.24;100.00;100699.00;6181692;23;20084;-89
2022/12/24 02:06:44;;;;;;;56.45;6.90;;;;;;;7.27;100.00;100709.19;6180980;23;20329;-89
2022/12/24 02:09:10;;;;;;;55.37;6.53;;;;;;;7.31;100.00;100707.63;6182024;23;20016;-89
2022/12/24 02:11:40;;;;;;;50.63;5.97;;;;;;;7.28;100.00;100698.28;6180464;23;20001;-89
2022/12/24 02:14:05;;;;;;;53.20;6.78;;;;;;;7.43;100.00;100719.06;6181994;23;20089;-89
2022/12/24 02:16:40;;;;;;;48.97;6.63;;;;;;;7.48;100.00;100720.22;6181135;23;20578;-89
2022/12/24 02:19:25;;;;;;;50.75;6.45;;;;;;;7.54;100.00;100724.56;6181312;23;20056;-89
2022/12/24 02:21:58;;;;;;;56.13;6.35;;;;;;;7.60;100.00;100723.63;6181144;23;20016;-89
2022/12/24 02:24:49;;;;;;;58.58;6.32;;;;;;;7.69;100.00;100730.16;6181339;23;20385;-88
2022/12/24 02:27:21;;;;;;;55.63;6.40;;;;;;;7.69;100.00;100718.72;6180910;23;20489;-89
2022/12/24 02:30:09;;;;;;;53.70;6.33;;;;;;;7.73;100.00;100723.31;6180267;23;20004;-88
2022/12/24 02:32:53;;;;;;;60.93;6.73;;;;;;;7.77;100.00;100722.84;6181202;23;20244;-89
2022/12/24 02:35:37;;;;;;;50.90;6.20;;;;;;;7.77;100.00;100728.16;6182418;23;20001;-89
2022/12/24 02:38:44;;;;;;;53.58;6.40;;;;;;;7.75;100.00;100732.94;6182063;23;20013;-89
2022/12/24 02:41:15;;;;;;;43.63;5.40;;;;;;;7.71;100.00;100728.06;6181138;23;20001;-89
2022/12/24 02:43:44;;;;;;;48.60;5.38;;;;;;;7.71;100.00;100728.06;6181433;23;20016;-89
2022/12/24 02:46:17;;;;;;;51.13;5.82;;;;;;;7.75;100.00;100730.28;6182513;23;20005;-89
2022/12/24 02:48:46;;;;;;;66.40;6.53;;;;;;;7.72;100.00;100729.69;6180955;23;20502;-89
2022/12/24 02:51:12;;;;;;;50.73;6.50;;;;;;;7.78;100.00;100746.59;6181258;23;20597;-89
2022/12/24 02:53:38;;;;;;;42.78;4.53;;;;;;;7.81;100.00;100737.31;6181621;23;20047;-89
2022/12/24 02:56:46;;;;;;;53.13;5.32;;;;;;;7.82;100.00;100733.59;6181588;23;20009;-89
2022/12/24 02:59:19;;;;;;;48.47;4.90;;;;;;;7.80;100.00;100738.38;6182150;23;20020;-89
2022/12/24 03:02:19;;;;;;;48.93;5.30;;;;;;;7.73;100.00;100733.97;6179870;23;20693;-89
2022/12/24 03:05:19;;;;;;;61.65;5.95;;;;;;;7.64;100.00;100735.44;6181612;23;20108;-89
2022/12/24 03:07:50;;;;;;;50.35;5.03;;;;;;;7.61;100.00;100733.25;6181266;23;20016;-90
2022/12/24 03:10:34;;;;;;;47.60;5.60;;;;;;;7.55;100.00;100735.03;6181611;23;20028;-90
2022/12/24 03:13:07;;;;;;;56.08;5.28;;;;;;;7.50;100.00;100734.09;6185009;23;20005;-90
2022/12/24 03:15:51;;;;;;;41.03;4.65;;;;;;;7.49;100.00;100738.63;6180612;23;20001;-89
2022/12/24 03:18:44;;;;;;;48.43;5.30;;;;;;;7.45;100.00;100728.69;6180647;23;20495;-89
2022/12/24 03:21:20;;;;;;;52.97;6.03;;;;;;;7.60;100.00;100747.63;6138901;23;20245;-89
2022/12/24 03:27:28;;;;;;;45.03;5.55;;;;;;;7.57;100.00;100727.59;6091112;23;20035;-90
2022/12/24 03:29:54;;;;;;;55.05;6.03;;;;;;;7.66;100.00;100735.19;6091184;23;20047;-89
2022/12/24 03:32:27;;;;;;;61.15;7.32;;;;;;;7.77;100.00;100744.97;6134652;23;20095;-89
2022/12/24 03:34:52;;;;;;;52.60;5.82;;;;;;;7.85;100.00;100755.25;6183020;23;20011;-90
2022/12/24 03:37:18;;;;;;;49.77;6.00;;;;;;;7.90;100.00;100757.19;6183315;23;20032;-90
2022/12/24 03:39:43;;;;;;;48.67;6.63;;;;;;;7.94;100.00;100758.34;6155714;23;20422;-90
2022/12/24 03:42:08;;;;;;;47.63;6.25;;;;;;;8.03;100.00;100764.88;6181533;23;20012;-90
2022/12/24 03:44:34;;;;;;;52.70;6.00;;;;;;;8.06;100.00;100758.28;6181404;23;20438;-90
2022/12/24 03:46:59;;;;;;;48.00;6.33;;;;;;;8.10;100.00;100759.41;6182600;23;20013;-90
2022/12/24 03:49:24;;;;;;;51.97;6.67;;;;;;;8.14;100.00;100765.84;6183605;23;20421;-90
2022/12/24 03:51:50;;;;;;;38.47;5.27;;;;;;;8.16;100.00;100769.09;6181889;23;20009;-90
2022/12/24 03:54:15;;;;;;;45.20;4.97;;;;;;;8.19;100.00;100767.81;6183535;23;20008;-90
2022/12/24 03:56:40;;;;;;;51.07;6.07;;;;;;;8.16;100.00;100757.63;6182006;23;20410;-90
2022/12/24 03:59:06;;;;;;;48.30;5.73;;;;;;;8.17;100.00;100765.38;6184010;23;20027;-89
2022/12/24 04:01:31;;;;;;;52.40;5.60;;;;;;;8.17;100.00;100764.59;6181954;23;20703;-89
2022/12/24 04:03:56;;;;;;;34.00;5.53;;;;;;;8.27;100.00;100770.06;6184549;23;20032;-90
2022/12/24 04:06:22;;;;;;;45.90;5.73;;;;;;;8.25;100.00;100774.84;6184102;23;20005;-90
2022/12/24 04:08:47;;;;;;;31.63;4.80;;;;;;;8.19;100.00;100773.16;6182619;23;20012;-90
2022/12/24 04:11:14;;;;;;;38.30;6.17;;;;;;;8.19;100.00;100765.16;6181918;23;20013;-88
2022/12/24 04:13:40;;;;;;;38.80;6.13;;;;;;;8.20;100.00;100774.78;6182736;23;20032;-89
2022/12/24 04:16:10;;;;;;;46.47;5.43;;;;;;;8.10;100.00;100769.25;6182860;23;20005;-89
2022/12/24 04:18:39;;;;;;;40.70;5.32;;;;;;;8.16;100.00;100782.44;6181233;23;20013;-88
2022/12/24 04:21:06;;;;;;;40.13;5.07;;;;;;;8.14;100.00;100778.41;6181571;23;20309;-88
2022/12/24 04:23:33;;;;;;;52.45;6.00;;;;;;;8.15;100.00;100782.69;6182598;23;20005;-88
2022/12/24 04:26:00;;;;;;;38.42;5.18;;;;;;;8.19;100.00;100799.84;6182205;23;20437;-89
2022/12/24 04:28:25;;;;;;;29.85;5.00;;;;;;;8.16;100.00;100795.00;6182083;23;20013;-88
2022/12/24 04:30:50;;;;;;;34.70;5.00;;;;;;;8.14;100.00;100789.09;6182271;23;20009;-88
2022/12/24 04:33:16;;;;;;;37.63;4.77;;;;;;;8.11;100.00;100792.22;6182342;23;20000;-88
2022/12/24 04:35:42;;;;;;;32.60;5.43;;;;;;;7.98;100.00;100796.84;6182442;23;20032;-88
2022/12/24 04:38:08;;;;;;;48.28;5.57;;;;;;;7.98;100.00;100794.16;6182335;23;20008;-89
2022/12/24 04:40:33;;;;;;;48.90;6.97;;;;;;;7.91;100.00;100790.84;6181355;23;20009;-88
2022/12/24 04:42:59;;;;;;;36.80;5.90;;;;;;;7.83;100.00;100783.25;6182377;23;20077;-88
2022/12/24 04:45:24;;;;;;;47.53;6.63;;;;;;;7.84;100.00;100800.88;6181589;23;20008;-88
2022/12/24 04:47:50;;;;;;;46.92;5.10;;;;;;;7.85;100.00;100805.94;6181579;23;20015;-88
2022/12/24 04:50:15;;;;;;;35.40;5.23;;;;;;;7.82;100.00;100802.97;6181982;23;20595;-88
2022/12/24 04:52:40;;;;;;;43.90;5.37;;;;;;;7.70;100.00;100795.81;6181858;23;20005;-88
2022/12/24 04:55:06;;;;;;;41.63;5.97;;;;;;;7.64;100.00;100799.44;6182398;23;20005;-89
2022/12/24 04:57:32;;;;;;;51.00;5.35;;;;;;;7.61;100.00;100805.25;6180875;23;20067;-88
2022/12/24 04:59:58;;;;;;;45.50;4.90;;;;;;;7.62;100.00;100814.03;6181653;23;20422;-88
2022/12/24 05:02:23;;;;;;;48.50;4.97;;;;;;;7.56;100.00;100803.31;6181659;23;20244;-89
2022/12/24 05:04:49;;;;;;;38.10;4.57;;;;;;;7.53;100.00;100814.44;6181487;23;20076;-88
2022/12/24 05:07:14;;;;;;;38.87;5.10;;;;;;;7.58;100.00;100819.06;6181916;23;20005;-88
2022/12/24 05:09:40;;;;;;;44.43;4.87;;;;;;;7.65;100.00;100811.75;6180956;23;20012;-88
2022/12/24 05:12:05;;;;;;;44.30;4.60;;;;;;;7.73;100.00;100823.88;6182008;23;20009;-89
2022/12/24 05:14:31;;;;;;;45.38;4.75;;;;;;;7.75;100.00;100829.78;6181964;23;20005;-89
2022/12/24 05:16:56;;;;;;;44.63;5.77;;;;;;;7.75;100.00;100826.28;6181285;23;20008;-89
2022/12/24 05:19:21;;;;;;;41.60;4.37;;;;;;;7.79;100.00;100827.44;6181437;23;20005;-88
2022/12/24 05:26:20;;;;;;;42.40;4.57;;;;;;;7.82;100.00;100817.09;6181690;23;20036;-89
2022/12/24 05:27:16;;;;;;;52.88;5.10;;;;;;;7.71;100.00;100794.75;6181149;23;20023;-89
2022/12/24 05:29:41;;;;;;;44.57;5.40;;;;;;;7.76;100.00;100804.69;6179769;23;20594;-89
2022/12/24 05:32:06;;;;;;;38.13;4.03;;;;;;;7.76;100.00;100811.91;6181429;23;20005;-88
2022/12/24 05:34:31;;;;;;;48.67;5.03;;;;;;;7.70;100.00;100819.00;6182449;23;20001;-90
2022/12/24 05:36:57;;;;;;;46.60;5.20;;;;;;;7.61;100.00;100810.59;6182456;23;20098;-88
2022/12/24 05:39:22;;;;;;;44.33;4.77;;;;;;;7.52;100.00;100812.81;6182802;23;20011;-89
2022/12/24 05:41:47;;;;;;;47.63;5.17;;;;;;;7.42;100.00;100813.44;6182271;23;20016;-89
2022/12/24 05:44:13;;;;;;;47.25;5.00;;;;;;;7.42;100.00;100821.44;6182547;23;20009;-88
2022/12/24 05:46:39;;;;;;;46.43;5.07;;;;;;;7.45;100.00;100822.00;6181888;23;20080;-89
2022/12/24 05:49:04;;;;;;;41.90;5.03;;;;;;;7.47;100.00;100833.25;6181740;23;20276;-89
2022/12/24 05:51:29;;;;;;;41.70;6.27;;;;;;;7.46;100.00;100844.97;6181524;23;20005;-90
2022/12/24 05:53:54;;;;;;;42.77;5.10;;;;;;;7.42;100.00;100856.09;6182145;23;20005;-90
2022/12/24 05:56:22;;;;;;;43.50;5.03;;;;;;;7.43;100.00;100847.06;6181395;23;20342;-90
2022/12/24 05:58:48;;;;;;;41.40;4.88;;;;;;;7.51;100.00;100858.38;6181616;23;20382;-89
2022/12/24 06:01:14;;;;;;;51.13;5.00;;;;;;;7.53;100.00;100850.94;6181273;23;20005;-89
2022/12/24 06:03:39;;;;;;;42.40;5.20;;;;;;;7.54;100.00;100855.25;6180980;23;20326;-89
2022/12/24 06:06:07;;;;;;;42.78;5.15;;;;;;;7.49;100.00;100855.97;6182436;23;20087;-89
2022/12/24 06:08:35;;;;;;;51.37;6.70;;;;;;;7.45;100.00;100862.00;6182971;23;20084;-90
2022/12/24 06:11:04;;;;;;;39.23;5.53;;;;;;;7.40;100.00;100868.84;6180997;23;20248;-90
2022/12/24 06:13:30;;;;;;;43.97;6.30;;;;;;;7.34;100.00;100868.97;6181797;23;20752;-91
2022/12/24 06:15:57;;;;;;;44.95;5.18;;;;;;;7.26;100.00;100860.28;6181631;23;20016;-90
2022/12/24 06:18:22;;;;;;;45.72;5.80;;;;;;;7.30;100.00;100863.31;6181541;23;20092;-90
2022/12/24 06:20:55;;;;;;;35.20;5.43;;;;;;;7.32;100.00;100861.19;6180477;23;20037;-90
2022/12/24 06:24:00;;;;;;;;;;;;;;;;;;;;;
2022/12/24 06:26:26;;;;;;;54.80;6.38;;;;;;;7.16;100.00;100857.41;6169201;23;20084;-89
2022/12/24 06:28:51;;;;;;;35.30;5.50;;;;;;;7.23;100.00;100867.94;6180878;23;20032;-89
2022/12/24 06:31:19;;;;;;;49.67;6.03;;;;;;;7.19;100.00;100869.47;6181279;23;20387;-88
2022/12/24 06:33:44;;;;;;;49.00;6.93;;;;;;;7.12;100.00;100870.38;6181467;23;20138;-87
2022/12/24 06:36:17;;;;;;;53.40;6.90;;;;;;;7.16;100.00;100880.56;6181823;23;20047;-89
2022/12/24 06:38:43;;;;;;;49.60;6.45;;;;;;;7.11;100.00;100884.78;6179984;23;20008;-90
2022/12/24 06:41:08;;;;;;;49.60;7.10;;;;;;;7.10;100.00;100882.31;6181814;23;20001;-90
2022/12/24 06:43:34;;;;;;;43.00;7.27;;;;;;;7.08;100.00;100885.25;6181622;23;20012;-88
2022/12/24 06:46:01;;;;;;;52.40;6.93;;;;;;;7.12;100.00;100891.69;6181805;23;20144;-91
2022/12/24 06:48:26;;;;;;;46.88;6.30;;;;;;;7.10;100.00;100890.31;6180582;23;20073;-89
2022/12/24 06:50:52;;;;;;;47.90;6.80;;;;;;;7.04;100.00;100902.72;6180897;23;20009;-89
2022/12/24 06:53:17;;;;;;;54.25;7.57;;;;;;;7.07;100.00;100896.94;6181020;23;20098;-89
2022/12/24 06:55:42;;;;;;;47.20;7.70;;;;;;;7.08;100.00;100895.91;6180049;23;20002;-91
2022/12/24 06:58:10;;;;;;;51.13;7.87;;;;;;;7.09;100.00;100897.50;6181614;23;20024;-90
2022/12/24 07:00:36;;;;;;;42.00;7.28;;;;;;;7.13;100.00;100900.53;6181175;23;20064;-90
2022/12/24 07:03:01;;;;;;;47.80;6.93;;;;;;;7.09;100.00;100904.69;6187599;23;20004;-89
2022/12/24 07:05:27;;;;;;;68.23;9.27;;;;;;;7.13;100.00;100900.53;6185293;23;20232;-90
2022/12/24 07:07:52;;;;;;;52.43;7.30;;;;;;;7.05;100.00;100893.69;6183358;23;20623;-91
2022/12/24 07:10:18;;;;;;;56.03;6.70;;;;;;;7.17;100.00;100908.84;6183175;23;20084;-91
2022/12/24 07:12:45;;;;;;;51.03;7.87;;;;;;;7.19;100.00;100904.09;6183119;23;20001;-91
2022/12/24 07:15:11;;;;;;;56.17;6.75;;;;;;;7.12;100.00;100915.69;6183068;23;20046;-91
2022/12/24 07:17:37;;;;;;;51.08;7.00;;;;;;;7.07;100.00;100914.75;6181825;23;20013;-91
2022/12/24 07:20:04;;;;;;;53.53;7.20;;;;;;;7.05;100.00;100920.34;6155128;23;20008;-90
2022/12/24 07:22:29;;;;;;;53.17;6.97;;;;;;;6.98;100.00;100914.28;6182458;23;20008;-90
2022/12/24 07:24:55;;;;;;;50.77;7.40;;;;;;;7.00;100.00;100920.22;6183260;23;20236;-90
2022/12/24 07:27:20;;;;;;;46.40;6.87;;;;;;;6.90;100.00;100925.31;6182269;23;20008;-89
2022/12/24 07:29:45;;;;;;;51.47;6.60;;;;;;;6.84;100.00;100931.56;6182303;23;20005;-87
2022/12/24 07:32:11;;;;;;;42.27;5.87;;;;;;;6.81;100.00;100936.28;6183370;23;20475;-93
2022/12/24 07:34:36;;;;;;;57.70;7.70;;;;;;;6.81;100.00;100930.97;6184089;23;20052;-92
2022/12/24 07:37:01;;;;;;;38.73;5.67;;;;;;;6.82;100.00;100939.78;6185250;23;20035;-90
2022/12/24 07:39:27;;;;;;;60.53;7.27;;;;;;;6.86;100.00;100946.25;6185410;23;20387;-91
2022/12/24 07:41:52;;;;;;;51.60;6.30;;;;;;;6.77;100.00;100942.31;6183728;23;20047;-88
2022/12/24 07:44:18;;;;;;;47.40;6.78;;;;;;;6.74;100.00;100948.91;6184219;23;20058;-89
2022/12/24 07:46:44;;;;;;;61.53;7.77;;;;;;;6.81;100.00;100946.16;6182331;23;20017;-92
2022/12/24 07:49:10;;;;;;;52.35;7.07;;;;;;;6.80;100.00;100955.19;6182894;23;20004;-91
2022/12/24 07:51:36;;;;;;;55.83;7.57;;;;;;;6.83;100.00;100954.72;6182599;23;20007;-93
2022/12/24 07:54:03;;;;;;;49.63;5.68;;;;;;;6.83;100.00;100960.06;6183579;23;20032;-92
2022/12/24 07:56:29;;;;;;;49.05;6.00;;;;;;;6.77;100.00;100967.09;6183162;23;20009;-93
2022/12/24 07:58:54;;;;;;;47.70;5.75;;;;;;;6.78;100.00;100979.38;6183616;23;20081;-92
2022/12/24 08:01:19;;;;;;;54.77;6.50;;;;;;;6.80;100.00;100977.28;6183439;23;20016;-92
2022/12/24 08:03:45;;;;;;;56.07;6.00;;;;;;;6.86;100.00;100990.75;6183312;23;20426;-92
2022/12/24 08:06:10;;;;;;;50.93;6.13;;;;;;;6.89;100.00;100988.41;6182411;23;20020;-91
2022/12/24 08:08:36;;;;;;;51.37;5.77;;;;;;;6.88;100.00;100994.00;6183856;23;20492;-92
2022/12/24 08:11:04;;;;;;;61.60;6.43;;;;;;;6.99;100.00;100995.06;6185084;23;20537;-92
2022/12/24 08:13:30;;;;;;;52.63;6.43;;;;;;;7.15;100.00;101005.03;6188610;23;20013;-93
2022/12/24 08:15:55;;;;;;;62.17;6.25;;;;;;;7.17;100.00;101008.28;6185077;23;20507;-91
2022/12/24 08:18:21;;;;;;;50.47;6.10;;;;;;;7.20;100.00;101018.50;6182352;23;20488;-91
2022/12/24 08:20:46;;;;;;;51.10;6.45;;;;;;;7.16;100.00;101019.16;6182547;23;20421;-90
2022/12/24 08:23:12;;;;;;;56.03;6.37;;;;;;;7.09;100.00;101019.28;6181335;23;20001;-91
2022/12/24 08:25:41;;;;;;;52.57;6.60;;;;;;;7.01;100.00;101016.94;6181409;23;20079;-91
2022/12/24 08:28:06;;;;;;;55.63;5.93;;;;;;;6.90;100.00;101005.22;6183185;22;20020;-93
2022/12/24 08:30:32;;;;;;;48.23;6.37;;;;;;;7.06;100.00;101033.88;6182830;23;20001;-93
2022/12/24 08:32:57;;;;;;;40.17;5.78;;;;;;;7.06;100.00;101036.53;6183669;23;20005;-93
2022/12/24 08:35:23;;;;;;;60.03;5.97;;;;;;;7.07;100.00;101037.34;6183204;23;20028;-93
2022/12/24 08:37:48;;;;;;;60.17;5.80;;;;;;;7.13;100.00;101037.22;6184364;23;20033;-93
2022/12/24 08:40:14;;;;;;;64.10;7.07;;;;;;;7.20;100.00;101041.66;6184030;23;20001;-92
2022/12/24 08:42:39;;;;;;;59.90;6.90;;;;;;;7.19;100.00;101034.69;6183704;23;20005;-93
2022/12/24 08:45:05;;;;;;;56.03;5.63;;;;;;;7.16;100.00;101043.16;6184380;23;20005;-93
2022/12/24 08:47:30;;;;;;;54.55;7.28;;;;;;;7.17;100.00;101050.94;6184503;23;20005;-94
2022/12/24 08:49:55;;;;;;;52.23;7.57;;;;;;;7.22;100.00;101044.91;6192203;23;20470;-93
2022/12/24 08:52:21;;;;;;;47.20;6.73;;;;;;;7.27;100.00;101050.38;6193051;23;20084;-93
2022/12/24 08:54:46;;;;;;;48.13;6.70;;;;;;;7.30;100.00;101060.56;6198653;23;20331;-92
2022/12/24 08:57:13;;;;;;;54.93;6.70;;;;;;;7.27;100.00;101056.50;6196956;23;20543;-92
2022/12/24 08:59:38;;;;;;;49.78;6.95;;;;;;;7.32;100.00;101055.00;6193231;23;20001;-93
2022/12/24 09:02:04;;;;;;;49.37;6.33;;;;;;;7.41;100.00;101059.75;6201555;23;20040;-94
2022/12/24 09:04:29;;;;;;;44.53;6.50;;;;;;;7.44;100.00;101066.47;6203259;23;20001;-93
2022/12/24 09:06:54;;;;;;;49.10;7.43;;;;;;;7.45;100.00;101064.63;6197180;23;20009;-92
2022/12/24 09:09:20;;;;;;;57.43;7.73;;;;;;;7.45;100.00;101072.63;6189864;23;20037;-94
2022/12/24 09:11:45;;;;;;;53.70;7.63;;;;;;;7.41;100.00;101077.59;6184471;23;20005;-90
2022/12/24 09:14:16;;;;;;;59.57;7.17;;;;;;;7.41;100.00;101094.44;6187741;23;20020;-91
2022/12/24 09:16:41;;;;;;;45.33;5.60;;;;;;;7.45;100.00;101091.31;6188254;23;20045;-91
2022/12/24 09:19:07;;;;;;;63.37;6.70;;;;;;;7.51;100.00;101087.69;6187025;23;20244;-91
2022/12/24 09:21:35;;;;;;;52.40;7.23;;;;;;;7.63;100.00;101101.03;6186420;23;20021;-91
2022/12/24 09:24:03;;;;;;;61.05;7.38;;;;;;;7.76;100.00;101106.16;6159777;23;20001;-89
2022/12/24 09:26:31;;;;;;;63.20;7.03;;;;;;;7.75;100.00;101114.38;6184334;23;20092;-89
2022/12/24 09:28:59;;;;;;;54.55;7.15;;;;;;;7.83;100.00;101119.41;6183063;23;20024;-90
2022/12/24 09:31:25;;;;;;;54.28;7.13;;;;;;;8.05;100.00;101111.59;6156442;23;20083;-90
2022/12/24 09:33:51;;;;;;;47.08;6.45;;;;;;;8.18;100.00;101119.34;6182989;23;20027;-90
2022/12/24 09:36:18;;;;;;;50.10;6.63;;;;;;;8.31;100.00;101123.63;6183456;23;20469;-90
2022/12/24 09:38:43;;;;;;;52.80;6.55;;;;;;;8.45;100.00;101123.38;6182965;23;20008;-91
2022/12/24 09:41:13;;;;;;;54.78;7.07;;;;;;;8.53;100.00;101133.72;6182476;23;20005;-90
2022/12/24 09:43:43;;;;;;;62.75;7.03;;;;;;;8.48;100.00;101122.94;6155618;23;20036;-91
2022/12/24 09:46:21;;;;;;;43.33;6.50;;;;;;;8.47;100.00;101137.31;6182549;23;20001;-92
2022/12/24 09:48:49;;;;;;;40.55;6.35;;;;;;;8.52;100.00;101141.97;6179330;23;20091;-91
2022/12/24 09:51:30;;;;;;;43.53;7.00;;;;;;;8.65;100.00;101144.38;6180206;23;20456;-90
2022/12/24 09:54:04;;;;;;;53.92;7.22;;;;;;;8.64;100.00;101150.78;6180877;23;20001;-90
2022/12/24 09:56:39;;;;;;;44.00;6.20;;;;;;;8.66;100.00;101143.34;6179995;23;20005;-90
2022/12/24 09:59:10;;;;;;;45.33;6.68;;;;;;;8.69;100.00;101150.84;6182841;23;20005;-91
2022/12/24 10:01:35;;;;;;;52.77;6.27;;;;;;;8.71;100.00;101154.09;6181407;23;20005;-91
2022/12/24 10:04:04;;;;;;;46.45;6.35;;;;;;;8.73;100.00;101162.69;6182910;23;20023;-92
2022/12/24 10:06:44;;;;;;;46.40;6.67;;;;;;;8.73;100.00;101164.56;6182222;23;20012;-92
2022/12/24 10:09:27;;;;;;;42.53;6.00;;;;;;;8.75;100.00;101160.59;6182112;23;20751;-91
2022/12/24 10:12:05;;;;;;;52.28;6.40;;;;;;;8.71;100.00;101159.44;6181959;23;20015;-90
2022/12/24 10:14:47;;;;;;;47.28;7.03;;;;;;;8.73;100.00;101161.91;6182057;23;20330;-90
2022/12/24 10:17:34;;;;;;;45.33;7.38;;;;;;;8.77;100.00;101177.22;6181392;23;20009;-90
2022/12/24 10:20:24;;;;;;;42.53;7.15;;;;;;;8.82;100.00;101175.69;6182520;23;20016;-92
2022/12/24 10:23:02;;;;;;;47.10;7.00;;;;;;;8.87;100.00;101162.41;6182536;23;20067;-92
2022/12/24 10:25:36;;;;;;;38.87;6.97;;;;;;;8.92;100.00;101162.50;6183259;23;20381;-91
2022/12/24 10:28:12;;;;;;;40.50;6.95;;;;;;;9.04;100.00;101162.47;6187505;23;20024;-91
2022/12/24 10:30:38;;;;;;;45.13;6.70;;;;;;;9.11;100.00;101165.00;6164072;23;20029;-91
2022/12/24 10:33:14;;;;;;;39.13;6.75;;;;;;;9.13;100.00;101163.69;6192100;23;20051;-92
2022/12/24 10:35:47;;;;;;;47.97;6.27;;;;;;;9.14;100.00;101151.94;6188469;23;20012;-90
2022/12/24 10:38:13;;;;;;;41.60;6.28;;;;;;;9.17;100.00;101161.38;6193955;23;20055;-92
2022/12/24 10:40:44;;;;;;;45.25;6.82;;;;;;;9.17;100.00;101174.75;6193052;23;20036;-92
2022/12/24 10:43:24;;;;;;;40.43;5.63;;;;;;;9.26;100.00;101177.84;6186870;23;20001;-92
2022/12/24 10:46:02;;;;;;;45.50;6.70;;;;;;;9.28;100.00;101178.41;6186708;23;20561;-91
2022/12/24 10:48:37;;;;;;;41.13;6.30;;;;;;;9.34;100.00;101175.59;6186710;23;20016;-93
2022/12/24 10:51:14;;;;;;;44.70;7.13;;;;;;;9.50;100.00;101173.97;6187130;23;20032;-93
2022/12/24 10:53:51;;;;;;;42.72;6.10;;;;;;;9.68;100.00;101172.13;6185290;23;20001;-91
2022/12/24 10:56:18;;;;;;;42.45;6.43;;;;;;;9.81;100.00;101173.66;6186080;23;20012;-90
2022/12/24 10:58:45;;;;;;;43.47;6.67;;;;;;;9.82;100.00;101170.75;6184338;23;20008;-92
2022/12/24 11:01:11;;;;;;;39.70;5.93;;;;;;;9.90;100.00;101168.69;6183604;23;20240;-90
2022/12/24 11:03:37;;;;;;;36.83;5.38;;;;;;;9.84;100.00;101179.34;6157535;23;20029;-93
2022/12/24 11:06:19;;;;;;;50.17;6.97;;;;;;;9.78;100.00;101177.66;6183004;23;20013;-92
2022/12/24 11:08:44;;;;;;;40.17;6.53;;;;;;;9.63;100.00;101177.41;6182803;23;20089;-91
2022/12/24 11:11:14;;;;;;;39.20;5.83;;;;;;;9.46;100.00;101172.03;6182994;23;20276;-91
2022/12/24 11:13:42;;;;;;;44.30;7.18;;;;;;;9.39;100.00;101177.53;6184163;23;20009;-91
2022/12/24 11:16:16;;;;;;;37.20;6.00;;;;;;;9.38;100.00;101187.44;6183675;23;20005;-91
2022/12/24 11:18:50;;;;;;;43.67;6.50;;;;;;;9.37;100.00;101184.97;6183840;23;20260;-92
2022/12/24 11:21:26;;;;;;;44.75;6.35;;;;;;;9.47;100.00;101181.69;6182489;23;20005;-91
2022/12/24 11:24:07;;;;;;;35.55;6.20;;;;;;;9.57;100.00;101181.88;6183265;23;20046;-92
2022/12/24 11:26:32;;;;;;;34.92;6.32;;;;;;;9.67;100.00;101189.25;6183793;23;20020;-92
2022/12/24 11:29:13;;;;;;;42.63;6.68;;;;;;;9.73;100.00;101182.09;6182744;23;20080;-91
2022/12/24 11:31:38;;;;;;;39.80;6.90;;;;;;;9.81;100.00;101193.22;6182580;23;20005;-91
2022/12/24 11:34:29;;;;;;;43.97;6.57;;;;;;;9.83;100.00;101193.78;6156782;23;20271;-93
2022/12/24 11:37:18;;;;;;;40.65;6.13;;;;;;;9.84;100.00;101195.41;6185499;23;20326;-93
2022/12/24 11:39:48;;;;;;;39.97;6.03;;;;;;;9.90;100.00;101203.50;6183160;23;20009;-92
2022/12/24 11:42:40;;;;;;;40.15;6.35;;;;;;;9.95;100.00;101195.56;6184208;23;20452;-93
2022/12/24 11:45:30;;;;;;;35.70;5.93;;;;;;;9.97;100.00;101199.59;6177893;23;20013;-92